sensor_id;sensor_type;location;lat;lon;timestamp;pressure;altitude;pressure_sealevel;temperature;humidity
70015;BME280;57358;51.094;6.760;2022-12-07T00:01:18;101414.97;;;3.65;100.00
70015;BME280;57358;51.094;6.760;2022-12-07T00:03:47;101312.81;;;3.01;100.00
70015;BME280;57358;51.094;6.760;2022-12-07T00:06:15;101417.66;;;3.57;100.00
70015;BME280;57358;51.094;6.760;2022-12-07T00:08:42;101415.06;;;3.59;100.00
70015;BME280;57358;51.094;6.760;2022-12-07T00:11:18;101421.03;;;3.64;100.00
70015;BME280;57358;51.094;6.760;2022-12-07T00:13:45;101314.50;;;3.05;100.00
70015;BME280;57358;51.094;6.760;2022-12-07T00:16:16;101420.25;;;3.57;100.00
70015;BME280;57358;51.094;6.760;2022-12-07T00:18:44;101226.09;;;2.51;100.00
70015;BME280;57358;51.094;6.760;2022-12-07T00:21:22;101407.22;;;3.60;100.00
70015;BME280;57358;51.094;6.760;2022-12-07T00:23:50;101428.19;;;3.45;100.00
70015;BME280;57358;51.094;6.760;2022-12-07T00:26:20;101386.69;;;3.42;100.00
70015;BME280;57358;51.094;6.760;2022-12-07T00:28:55;101412.41;;;3.62;100.00
70015;BME280;57358;51.094;6.760;2022-12-07T00:31:25;100834.16;;;0.29;100.00
70015;BME280;57358;51.094;6.760;2022-12-07T00:33:52;101405.41;;;3.69;100.00
70015;BME280;57358;51.094;6.760;2022-12-07T00:36:21;101318.75;;;3.11;100.00
70015;BME280;57358;51.094;6.760;2022-12-07T00:38:53;101421.81;;;3.72;100.00
70015;BME280;57358;51.094;6.760;2022-12-07T00:41:22;101408.78;;;3.77;100.00
70015;BME280;57358;51.094;6.760;2022-12-07T00:43:49;101415.69;;;3.78;100.00
70015;BME280;57358;51.094;6.760;2022-12-07T00:46:16;101407.03;;;3.79;100.00
70015;BME280;57358;51.094;6.760;2022-12-07T00:48:43;101297.06;;;3.16;100.00
70015;BME280;57358;51.094;6.760;2022-12-07T00:51:12;101407.88;;;3.81;100.00
70015;BME280;57358;51.094;6.760;2022-12-07T00:53:39;101350.34;;;3.45;100.00
70015;BME280;57358;51.094;6.760;2022-12-07T00:56:09;101406.03;;;3.88;100.00
70015;BME280;57358;51.094;6.760;2022-12-07T00:58:35;101404.31;;;3.87;100.00
70015;BME280;57358;51.094;6.760;2022-12-07T01:01:04;101384.59;;;3.73;100.00
70015;BME280;57358;51.094;6.760;2022-12-07T01:03:31;101185.38;;;2.60;100.00
70015;BME280;57358;51.094;6.760;2022-12-07T01:05:58;101332.97;;;3.49;100.00
70015;BME280;57358;51.094;6.760;2022-12-07T01:08:25;101389.63;;;3.84;100.00
70015;BME280;57358;51.094;6.760;2022-12-07T01:11:02;101389.66;;;3.83;100.00
70015;BME280;57358;51.094;6.760;2022-12-07T01:13:29;101379.53;;;3.63;100.00
70015;BME280;57358;51.094;6.760;2022-12-07T01:15:57;101369.88;;;3.72;100.00
70015;BME280;57358;51.094;6.760;2022-12-07T01:18:29;101389.66;;;3.83;100.00
70015;BME280;57358;51.094;6.760;2022-12-07T01:21:04;101297.78;;;3.29;100.00
70015;BME280;57358;51.094;6.760;2022-12-07T01:23:32;101393.91;;;3.87;100.00
70015;BME280;57358;51.094;6.760;2022-12-07T01:26:01;101396.56;;;3.85;100.00
70015;BME280;57358;51.094;6.760;2022-12-07T01:28:28;101328.06;;;3.29;100.00
70015;BME280;57358;51.094;6.760;2022-12-07T01:31:00;101399.25;;;3.76;100.00
70015;BME280;57358;51.094;6.760;2022-12-07T01:33:28;101271.28;;;3.04;100.00
70015;BME280;57358;51.094;6.760;2022-12-07T01:36:03;101398.34;;;3.80;100.00
70015;BME280;57358;51.094;6.760;2022-12-07T01:38:30;101402.69;;;3.79;100.00
70015;BME280;57358;51.094;6.760;2022-12-07T01:40:58;101278.19;;;3.04;100.00
70015;BME280;57358;51.094;6.760;2022-12-07T01:43:27;101393.22;;;3.75;100.00
70015;BME280;57358;51.094;6.760;2022-12-07T01:45:55;101272.13;;;3.05;100.00
70015;BME280;57358;51.094;6.760;2022-12-07T01:48:36;101042.25;;;1.67;100.00
70015;BME280;57358;51.094;6.760;2022-12-07T01:51:08;101233.44;;;2.88;100.00
70015;BME280;57358;51.094;6.760;2022-12-07T01:53:43;101249.81;;;2.93;100.00
70015;BME280;57358;51.094;6.760;2022-12-07T01:56:12;101387.06;;;3.83;100.00
70015;BME280;57358;51.094;6.760;2022-12-07T01:58:44;101310.84;;;3.22;100.00
70015;BME280;57358;51.094;6.760;2022-12-07T02:01:11;101355.28;;;3.64;100.00
70015;BME280;57358;51.094;6.760;2022-12-07T02:03:40;101381.03;;;3.80;100.00
70015;BME280;57358;51.094;6.760;2022-12-07T02:06:10;101381.06;;;3.79;100.00
70015;BME280;57358;51.094;6.760;2022-12-07T02:08:38;101373.41;;;3.68;100.00
70015;BME280;57358;51.094;6.760;2022-12-07T02:11:07;101356.97;;;3.69;100.00
70015;BME280;57358;51.094;6.760;2022-12-07T02:13:36;101368.88;;;3.84;100.00
70015;BME280;57358;51.094;6.760;2022-12-07T02:19:33;101374.91;;;3.85;100.00
70015;BME280;57358;51.094;6.760;2022-12-07T02:27:31;101359.50;;;3.71;100.00
70015;BME280;57358;51.094;6.760;2022-12-07T02:30:05;101374.28;;;3.67;100.00
70015;BME280;57358;51.094;6.760;2022-12-07T02:35:20;101269.59;;;3.00;100.00
70015;BME280;57358;51.094;6.760;2022-12-07T02:38:20;101368.22;;;3.68;100.00
70015;BME280;57358;51.094;6.760;2022-12-07T02:43:25;101373.47;;;3.62;100.00
70015;BME280;57358;51.094;6.760;2022-12-07T02:46:03;101343.25;;;3.56;100.00
70015;BME280;57358;51.094;6.760;2022-12-07T02:48:32;101314.88;;;3.44;100.00
70015;BME280;57358;51.094;6.760;2022-12-07T02:51:00;101183.97;;;2.30;100.00
70015;BME280;57358;51.094;6.760;2022-12-07T02:53:34;101333.84;;;3.51;100.00
70015;BME280;57358;51.094;6.760;2022-12-07T03:06:53;101359.59;;;3.65;100.00
70015;BME280;57358;51.094;6.760;2022-12-07T03:09:33;101207.75;;;2.71;100.00
70015;BME280;57358;51.094;6.760;2022-12-07T03:12:17;100983.88;;;1.43;100.00
70015;BME280;57358;51.094;6.760;2022-12-07T03:14:58;101298.63;;;3.33;100.00
70015;BME280;57358;51.094;6.760;2022-12-07T03:17:28;100655.13;;;-0.66;100.00
70015;BME280;57358;51.094;6.760;2022-12-07T03:19:58;101337.31;;;3.50;100.00
70015;BME280;57358;51.094;6.760;2022-12-07T03:22:29;101338.28;;;3.41;100.00
70015;BME280;57358;51.094;6.760;2022-12-07T03:24:59;101355.38;;;3.59;100.00
70015;BME280;57358;51.094;6.760;2022-12-07T03:27:31;101337.53;;;3.30;100.00
70015;BME280;57358;51.094;6.760;2022-12-07T03:30:04;101356.19;;;3.61;100.00
70015;BME280;57358;51.094;6.760;2022-12-07T03:32:37;101294.34;;;3.27;100.00
70015;BME280;57358;51.094;6.760;2022-12-07T03:40:37;101347.84;;;3.37;100.00
70015;BME280;57358;51.094;6.760;2022-12-07T03:43:05;101258.38;;;2.98;100.00
70015;BME280;57358;51.094;6.760;2022-12-07T03:45:43;101174.28;;;2.51;100.00
70015;BME280;57358;51.094;6.760;2022-12-07T03:48:16;101355.41;;;3.54;100.00
70015;BME280;57358;51.094;6.760;2022-12-07T03:50:54;101182.97;;;2.47;100.00
70015;BME280;57358;51.094;6.760;2022-12-07T03:53:30;101234.44;;;2.77;100.00
70015;BME280;57358;51.094;6.760;2022-12-07T03:55:58;101273.03;;;3.00;100.00
70015;BME280;57358;51.094;6.760;2022-12-07T03:58:27;101312.63;;;3.16;100.00
70015;BME280;57358;51.094;6.760;2022-12-07T04:00:54;101341.81;;;3.35;100.00
70015;BME280;57358;51.094;6.760;2022-12-07T04:03:21;101334.03;;;3.32;100.00
70015;BME280;57358;51.094;6.760;2022-12-07T04:05:48;101175.28;;;2.34;100.00
70015;BME280;57358;51.094;6.760;2022-12-07T04:08:14;101322.06;;;3.24;100.00
70015;BME280;57358;51.094;6.760;2022-12-07T04:10:41;101050.25;;;1.38;100.00
70015;BME280;57358;51.094;6.760;2022-12-07T04:13:07;101278.25;;;2.99;100.00
70015;BME280;57358;51.094;6.760;2022-12-07T04:15:34;101285.19;;;2.97;100.00
70015;BME280;57358;51.094;6.760;2022-12-07T04:18:00;101240.69;;;2.58;100.00
70015;BME280;57358;51.094;6.760;2022-12-07T04:20:27;101342.88;;;3.16;100.00
70015;BME280;57358;51.094;6.760;2022-12-07T04:22:53;101284.59;;;2.70;100.00
70015;BME280;57358;51.094;6.760;2022-12-07T04:25:23;101316.47;;;2.82;100.00
70015;BME280;57358;51.094;6.760;2022-12-07T04:27:49;101326.81;;;2.85;100.00
70015;BME280;57358;51.094;6.760;2022-12-07T04:30:16;101145.63;;;1.83;100.00
70015;BME280;57358;51.094;6.760;2022-12-07T04:32:42;101344.78;;;3.03;100.00
70015;BME280;57358;51.094;6.760;2022-12-07T04:35:09;101347.31;;;3.08;100.00
70015;BME280;57358;51.094;6.760;2022-12-07T04:37:35;101370.63;;;3.11;100.00
70015;BME280;57358;51.094;6.760;2022-12-07T04:40:02;101317.22;;;2.93;100.00
70015;BME280;57358;51.094;6.760;2022-12-07T04:42:29;101347.28;;;3.09;100.00
70015;BME280;57358;51.094;6.760;2022-12-07T04:44:56;101246.75;;;2.55;100.00
70015;BME280;57358;51.094;6.760;2022-12-07T04:47:22;101287.09;;;2.81;100.00
70015;BME280;57358;51.094;6.760;2022-12-07T04:49:48;101341.22;;;3.12;100.00
70015;BME280;57358;51.094;6.760;2022-12-07T04:52:15;101280.19;;;2.82;100.00
70015;BME280;57358;51.094;6.760;2022-12-07T04:54:41;101280.56;;;2.43;100.00
70015;BME280;57358;51.094;6.760;2022-12-07T04:57:07;101288.88;;;2.74;100.00
70015;BME280;57358;51.094;6.760;2022-12-07T04:59:34;101249.34;;;2.57;100.00
70015;BME280;57358;51.094;6.760;2022-12-07T05:02:01;101303.25;;;3.05;100.00
70015;BME280;57358;51.094;6.760;2022-12-07T05:04:28;101333.34;;;3.19;100.00
70015;BME280;57358;51.094;6.760;2022-12-07T05:06:54;101225.19;;;2.52;100.00
70015;BME280;57358;51.094;6.760;2022-12-07T05:09:20;101305.06;;;2.98;100.00
70015;BME280;57358;51.094;6.760;2022-12-07T05:11:47;101286.91;;;2.99;100.00
70015;BME280;57358;51.094;6.760;2022-12-07T05:14:18;101327.16;;;3.30;100.00
70015;BME280;57358;51.094;6.760;2022-12-07T05:16:46;101244.88;;;2.68;100.00
70015;BME280;57358;51.094;6.760;2022-12-07T05:19:14;101157.41;;;2.13;100.00
70015;BME280;57358;51.094;6.760;2022-12-07T05:21:40;101160.97;;;2.03;100.00
70015;BME280;57358;51.094;6.760;2022-12-07T05:24:09;101322.22;;;3.10;100.00
70015;BME280;57358;51.094;6.760;2022-12-07T05:26:36;101247.59;;;2.59;100.00
70015;BME280;57358;51.094;6.760;2022-12-07T05:29:03;101303.38;;;2.92;100.00
70015;BME280;57358;51.094;6.760;2022-12-07T05:31:30;101288.72;;;2.93;100.00
70015;BME280;57358;51.094;6.760;2022-12-07T05:33:56;101303.38;;;2.94;100.00
70015;BME280;57358;51.094;6.760;2022-12-07T05:36:23;101322.28;;;3.02;100.00
70015;BME280;57358;51.094;6.760;2022-12-07T05:38:49;101329.22;;;3.02;100.00
70015;BME280;57358;51.094;6.760;2022-12-07T05:41:17;101151.53;;;1.95;100.00
70015;BME280;57358;51.094;6.760;2022-12-07T05:44:03;101252.00;;;2.51;100.00
70015;BME280;57358;51.094;6.760;2022-12-07T05:46:29;101264.00;;;2.58;100.00
70015;BME280;57358;51.094;6.760;2022-12-07T05:48:56;101324.13;;;2.94;100.00
70015;BME280;57358;51.094;6.760;2022-12-07T05:51:22;101262.31;;;2.57;100.00
70015;BME280;57358;51.094;6.760;2022-12-07T05:53:48;101139.50;;;1.88;100.00
70015;BME280;57358;51.094;6.760;2022-12-07T05:56:15;101298.34;;;2.80;100.00
70015;BME280;57358;51.094;6.760;2022-12-07T05:58:42;101153.19;;;2.03;100.00
70015;BME280;57358;51.094;6.760;2022-12-07T06:01:27;101307.69;;;2.95;100.00
70015;BME280;57358;51.094;6.760;2022-12-07T06:03:53;101272.47;;;2.75;100.00
70015;BME280;57358;51.094;6.760;2022-12-07T06:06:20;101299.78;;;3.06;100.00
70015;BME280;57358;51.094;6.760;2022-12-07T06:08:50;101247.59;;;2.59;100.00
70015;BME280;57358;51.094;6.760;2022-12-07T06:11:16;101242.53;;;2.47;100.00
70015;BME280;57358;51.094;6.760;2022-12-07T06:14:01;101148.03;;;2.03;100.00
70015;BME280;57358;51.094;6.760;2022-12-07T06:16:27;101297.34;;;2.92;100.00
70015;BME280;57358;51.094;6.760;2022-12-07T06:18:54;101263.84;;;2.72;100.00
70015;BME280;57358;51.094;6.760;2022-12-07T06:21:20;101174.63;;;2.15;100.00
70015;BME280;57358;51.094;6.760;2022-12-07T06:23:47;101307.72;;;2.90;100.00
70015;BME280;57358;51.094;6.760;2022-12-07T06:26:14;101305.19;;;2.87;100.00
70015;BME280;57358;51.094;6.760;2022-12-07T06:28:40;101291.38;;;2.85;100.00
70015;BME280;57358;51.094;6.760;2022-12-07T06:31:07;101324.88;;;3.05;100.00
70015;BME280;57358;51.094;6.760;2022-12-07T06:33:39;101320.47;;;3.10;100.00
70015;BME280;57358;51.094;6.760;2022-12-07T06:36:07;101209.81;;;2.36;100.00
70015;BME280;57358;51.094;6.760;2022-12-07T06:38:33;101238.97;;;2.57;100.00
70015;BME280;57358;51.094;6.760;2022-12-07T06:41:00;101246.69;;;2.62;100.00
70015;BME280;57358;51.094;6.760;2022-12-07T06:43:26;101114.47;;;1.90;100.00
70015;BME280;57358;51.094;6.760;2022-12-07T06:45:53;101217.47;;;2.49;100.00
70015;BME280;57358;51.094;6.760;2022-12-07T06:48:20;101284.38;;;2.90;100.00
70015;BME280;57358;51.094;6.760;2022-12-07T06:50:47;101214.91;;;2.46;100.00
70015;BME280;57358;51.094;6.760;2022-12-07T06:53:20;101081.13;;;1.59;100.00
70015;BME280;57358;51.094;6.760;2022-12-07T06:55:46;101260.41;;;2.71;100.00
70015;BME280;57358;51.094;6.760;2022-12-07T06:58:13;101282.75;;;2.85;100.00
70015;BME280;57358;51.094;6.760;2022-12-07T07:00:39;101321.34;;;3.11;100.00
70015;BME280;57358;51.094;6.760;2022-12-07T07:03:06;101217.53;;;2.43;100.00
70015;BME280;57358;51.094;6.760;2022-12-07T07:05:32;101261.25;;;2.73;100.00
70015;BME280;57358;51.094;6.760;2022-12-07T07:07:58;101293.84;;;2.96;100.00
70015;BME280;57358;51.094;6.760;2022-12-07T07:10:48;101192.63;;;2.31;100.00
70015;BME280;57358;51.094;6.760;2022-12-07T07:13:14;101302.38;;;3.07;100.00
70015;BME280;57358;51.094;6.760;2022-12-07T07:15:41;101202.00;;;2.39;100.00
70015;BME280;57358;51.094;6.760;2022-12-07T07:18:07;101178.00;;;2.27;100.00
70015;BME280;57358;51.094;6.760;2022-12-07T07:20:34;101304.13;;;3.04;100.00
70015;BME280;57358;51.094;6.760;2022-12-07T07:23:00;101198.56;;;2.39;100.00
70015;BME280;57358;51.094;6.760;2022-12-07T07:25:27;101235.47;;;2.63;100.00
70015;BME280;57358;51.094;6.760;2022-12-07T07:27:53;101247.47;;;2.68;100.00
70015;BME280;57358;51.094;6.760;2022-12-07T07:30:20;101210.50;;;2.52;100.00
70015;BME280;57358;51.094;6.760;2022-12-07T07:32:46;101219.22;;;2.45;100.00
70015;BME280;57358;51.094;6.760;2022-12-07T07:35:13;101311.00;;;3.09;100.00
70015;BME280;57358;51.094;6.760;2022-12-07T07:37:40;101318.78;;;3.05;100.00
70015;BME280;57358;51.094;6.760;2022-12-07T07:40:08;101262.97;;;2.74;100.00
70015;BME280;57358;51.094;6.760;2022-12-07T07:42:35;101232.13;;;2.51;100.00
70015;BME280;57358;51.094;6.760;2022-12-07T07:45:02;101275.91;;;2.74;100.00
70015;BME280;57358;51.094;6.760;2022-12-07T07:47:28;101322.34;;;2.96;100.00
70015;BME280;57358;51.094;6.760;2022-12-07T07:49:55;101276.81;;;2.72;100.00
70015;BME280;57358;51.094;6.760;2022-12-07T07:52:21;101217.56;;;2.39;100.00
70015;BME280;57358;51.094;6.760;2022-12-07T07:54:48;101314.59;;;2.96;100.00
70015;BME280;57358;51.094;6.760;2022-12-07T07:57:16;101257.97;;;2.59;100.00
70015;BME280;57358;51.094;6.760;2022-12-07T07:59:42;101131.78;;;1.87;100.00
70015;BME280;57358;51.094;6.760;2022-12-07T08:02:14;101318.72;;;3.14;100.00
70015;BME280;57358;51.094;6.760;2022-12-07T08:04:41;101264.75;;;2.69;100.00
70015;BME280;57358;51.094;6.760;2022-12-07T08:07:08;101328.25;;;3.10;100.00
70015;BME280;57358;51.094;6.760;2022-12-07T08:09:34;101316.25;;;3.03;100.00
70015;BME280;57358;51.094;6.760;2022-12-07T08:12:00;101159.97;;;2.14;100.00
70015;BME280;57358;51.094;6.760;2022-12-07T08:14:27;101320.53;;;3.07;100.00
70015;BME280;57358;51.094;6.760;2022-12-07T08:16:54;101325.75;;;3.03;100.00
70015;BME280;57358;51.094;6.760;2022-12-07T08:19:21;101241.53;;;2.58;100.00
70015;BME280;57358;51.094;6.760;2022-12-07T08:21:47;101330.00;;;3.10;100.00
70015;BME280;57358;51.094;6.760;2022-12-07T08:24:14;101263.78;;;2.78;100.00
70015;BME280;57358;51.094;6.760;2022-12-07T08:26:41;101291.16;;;3.04;100.00
70015;BME280;57358;51.094;6.760;2022-12-07T08:29:08;101323.88;;;3.15;100.00
70015;BME280;57358;51.094;6.760;2022-12-07T08:31:35;101332.44;;;3.22;100.00
70015;BME280;57358;51.094;6.760;2022-12-07T08:34:01;101268.91;;;2.84;100.00
70015;BME280;57358;51.094;6.760;2022-12-07T08:36:28;101237.88;;;2.76;100.00
70015;BME280;57358;51.094;6.760;2022-12-07T08:38:54;101333.19;;;3.33;100.00
70015;BME280;57358;51.094;6.760;2022-12-07T08:41:41;101331.38;;;3.38;100.00
70015;BME280;57358;51.094;6.760;2022-12-07T08:44:07;101187.13;;;2.58;100.00
70015;BME280;57358;51.094;6.760;2022-12-07T08:47:10;101332.09;;;3.53;100.00
70015;BME280;57358;51.094;6.760;2022-12-07T08:49:49;101283.00;;;3.36;100.00
70015;BME280;57358;51.094;6.760;2022-12-07T08:52:17;101258.22;;;3.13;100.00
70015;BME280;57358;51.094;6.760;2022-12-07T08:54:44;101327.53;;;3.69;100.00
70015;BME280;57358;51.094;6.760;2022-12-07T08:57:11;101260.66;;;3.26;100.00
70015;BME280;57358;51.094;6.760;2022-12-07T08:59:37;101318.72;;;3.80;100.00
70015;BME280;57358;51.094;6.760;2022-12-07T09:02:07;101207.34;;;3.03;100.00
70015;BME280;57358;51.094;6.760;2022-12-07T09:04:33;101242.50;;;3.24;100.00
70015;BME280;57358;51.094;6.760;2022-12-07T09:07:00;101228.03;;;3.06;100.00
70015;BME280;57358;51.094;6.760;2022-12-07T09:09:27;101276.78;;;3.49;100.00
70015;BME280;57358;51.094;6.760;2022-12-07T09:11:53;101315.97;;;3.91;100.00
70015;BME280;57358;51.094;6.760;2022-12-07T09:14:19;101255.81;;;3.63;100.00
70015;BME280;57358;51.094;6.760;2022-12-07T09:16:46;101184.69;;;3.17;100.00
70015;BME280;57358;51.094;6.760;2022-12-07T09:19:12;101293.81;;;3.67;100.00
70015;BME280;57358;51.094;6.760;2022-12-07T09:21:39;101240.63;;;3.37;100.00
70015;BME280;57358;51.094;6.760;2022-12-07T09:24:05;101310.91;;;3.84;100.00
70015;BME280;57358;51.094;6.760;2022-12-07T09:26:32;101184.69;;;3.14;100.00
70015;BME280;57358;51.094;6.760;2022-12-07T09:28:58;101252.34;;;3.63;100.00
70015;BME280;57358;51.094;6.760;2022-12-07T09:31:25;101297.63;;;4.04;100.00
70015;BME280;57358;51.094;6.760;2022-12-07T09:33:57;101125.22;;;3.02;100.00
70015;BME280;57358;51.094;6.760;2022-12-07T09:36:25;101330.97;;;4.31;100.00
70015;BME280;57358;51.094;6.760;2022-12-07T09:38:51;101324.94;;;4.29;100.00
70015;BME280;57358;51.094;6.760;2022-12-07T09:41:18;101330.84;;;4.39;100.00
70015;BME280;57358;51.094;6.760;2022-12-07T09:43:45;101226.91;;;3.86;100.00
70015;BME280;57358;51.094;6.760;2022-12-07T09:46:15;101329.84;;;4.45;100.00
70015;BME280;57358;51.094;6.760;2022-12-07T09:48:44;101330.72;;;4.45;100.00
70015;BME280;57358;51.094;6.760;2022-12-07T09:51:21;101311.75;;;4.40;100.00
70015;BME280;57358;51.094;6.760;2022-12-07T09:53:53;101329.66;;;4.57;100.00
70015;BME280;57358;51.094;6.760;2022-12-07T09:56:20;101310.56;;;4.58;100.00
70015;BME280;57358;51.094;6.760;2022-12-07T09:58:48;101328.78;;;4.58;100.00
70015;BME280;57358;51.094;6.760;2022-12-07T10:01:20;101300.50;;;4.39;100.00
70015;BME280;57358;51.094;6.760;2022-12-07T10:06:39;101305.59;;;4.46;100.00
70015;BME280;57358;51.094;6.760;2022-12-07T10:09:13;101275.38;;;4.38;100.00
70015;BME280;57358;51.094;6.760;2022-12-07T10:14:28;101267.56;;;4.42;100.00
70015;BME280;57358;51.094;6.760;2022-12-07T10:17:35;101321.50;;;4.77;100.00
70015;BME280;57358;51.094;6.760;2022-12-07T10:22:38;101263.16;;;4.45;100.00
70015;BME280;57358;51.094;6.760;2022-12-07T10:25:09;101328.47;;;4.75;100.00
70015;BME280;57358;51.094;6.760;2022-12-07T10:28:00;101319.78;;;4.77;100.00
70015;BME280;57358;51.094;6.760;2022-12-07T10:30:27;101311.75;;;4.88;100.00
70015;BME280;57358;51.094;6.760;2022-12-07T10:32:53;101249.41;;;4.37;100.00
70015;BME280;57358;51.094;6.760;2022-12-07T10:35:24;101308.34;;;4.85;100.00
70015;BME280;57358;51.094;6.760;2022-12-07T10:37:52;101314.97;;;5.01;100.00
70015;BME280;57358;51.094;6.760;2022-12-07T10:40:31;101307.47;;;4.86;100.00
70015;BME280;57358;51.094;6.760;2022-12-07T10:43:03;101310.78;;;4.94;100.00
70015;BME280;57358;51.094;6.760;2022-12-07T10:45:30;101308.06;;;5.02;100.00
70015;BME280;57358;51.094;6.760;2022-12-07T10:48:06;101302.63;;;5.12;100.00
70015;BME280;57358;51.094;6.760;2022-12-07T10:53:50;101302.31;;;5.28;100.00
70015;BME280;57358;51.094;6.760;2022-12-07T10:56:37;101266.44;;;5.02;100.00
70015;BME280;57358;51.094;6.760;2022-12-07T10:59:44;101286.84;;;5.22;100.00
70015;BME280;57358;51.094;6.760;2022-12-07T11:05:29;101286.50;;;5.37;100.00
70015;BME280;57358;51.094;6.760;2022-12-07T11:08:09;101228.78;;;5.19;100.00
70015;BME280;57358;51.094;6.760;2022-12-07T11:11:02;101272.88;;;5.66;100.00
70015;BME280;57358;51.094;6.760;2022-12-07T11:16:50;101214.88;;;4.78;100.00
70015;BME280;57358;51.094;6.760;2022-12-07T11:27:51;101290.38;;;5.59;100.00
70015;BME280;57358;51.094;6.760;2022-12-07T11:30:51;101277.91;;;5.74;100.00
70015;BME280;57358;51.094;6.760;2022-12-07T11:33:44;101259.88;;;5.65;100.00
70015;BME280;57358;51.094;6.760;2022-12-07T11:39:12;101204.91;;;5.39;100.00
70015;BME280;57358;51.094;6.760;2022-12-07T11:41:45;101272.16;;;5.59;100.00
70015;BME280;57358;51.094;6.760;2022-12-07T11:44:39;101274.81;;;5.56;100.00
70015;BME280;57358;51.094;6.760;2022-12-07T11:47:17;101276.31;;;5.67;100.00
70015;BME280;57358;51.094;6.760;2022-12-07T11:49:53;101219.97;;;5.25;100.00
70015;BME280;57358;51.094;6.760;2022-12-07T11:52:51;101211.78;;;5.42;100.00
70015;BME280;57358;51.094;6.760;2022-12-07T11:55:29;101236.91;;;5.82;100.00
70015;BME280;57358;51.094;6.760;2022-12-07T12:00:45;101213.34;;;5.87;100.00
70015;BME280;57358;51.094;6.760;2022-12-07T12:03:24;101225.38;;;5.92;100.00
70015;BME280;57358;51.094;6.760;2022-12-07T12:05:56;101246.75;;;6.07;100.00
70015;BME280;57358;51.094;6.760;2022-12-07T12:08:37;101258.56;;;5.84;100.00
70015;BME280;57358;51.094;6.760;2022-12-07T12:20:23;101248.16;;;6.54;100.00
70015;BME280;57358;51.094;6.760;2022-12-07T12:23:19;101157.75;;;5.88;100.00
70015;BME280;57358;51.094;6.760;2022-12-07T12:25:45;101159.91;;;5.72;100.00
70015;BME280;57358;51.094;6.760;2022-12-07T12:28:23;101160.44;;;5.85;100.00
70015;BME280;57358;51.094;6.760;2022-12-07T12:47:00;101227.84;;;5.98;100.00
70015;BME280;57358;51.094;6.760;2022-12-07T12:51:59;101187.88;;;5.64;100.00
70015;BME280;57358;51.094;6.760;2022-12-07T12:54:31;101156.47;;;5.34;100.00
70015;BME280;57358;51.094;6.760;2022-12-07T12:57:19;101222.63;;;5.61;100.00
70015;BME280;57358;51.094;6.760;2022-12-07T13:02:29;101227.63;;;5.70;100.00
70015;BME280;57358;51.094;6.760;2022-12-07T13:10:34;101210.31;;;5.69;100.00
70015;BME280;57358;51.094;6.760;2022-12-07T13:20:59;101201.47;;;5.75;100.00
70015;BME280;57358;51.094;6.760;2022-12-07T13:26:12;101220.94;;;5.60;100.00
70015;BME280;57358;51.094;6.760;2022-12-07T13:28:48;101225.16;;;5.66;100.00
70015;BME280;57358;51.094;6.760;2022-12-07T13:31:32;101223.44;;;5.63;100.00
70015;BME280;57358;51.094;6.760;2022-12-07T13:34:00;101211.19;;;5.68;100.00
70015;BME280;57358;51.094;6.760;2022-12-07T13:36:37;101156.47;;;5.34;100.00
70015;BME280;57358;51.094;6.760;2022-12-07T13:41:44;101219.81;;;5.70;100.00
70015;BME280;57358;51.094;6.760;2022-12-07T13:44:13;101215.03;;;5.53;100.00
70015;BME280;57358;51.094;6.760;2022-12-07T13:49:30;101201.13;;;5.53;100.00
70015;BME280;57358;51.094;6.760;2022-12-07T13:52:16;101166.91;;;5.31;100.00
70015;BME280;57358;51.094;6.760;2022-12-07T13:54:49;101207.16;;;5.55;100.00
70015;BME280;57358;51.094;6.760;2022-12-07T13:57:22;101203.91;;;5.45;100.00
70015;BME280;57358;51.094;6.760;2022-12-07T13:59:50;101167.09;;;5.23;100.00
70015;BME280;57358;51.094;6.760;2022-12-07T14:02:23;101203.00;;;5.48;100.00
70015;BME280;57358;51.094;6.760;2022-12-07T14:05:15;101208.34;;;5.42;100.00
70015;BME280;57358;51.094;6.760;2022-12-07T14:07:54;101205.09;;;5.30;100.00
70015;BME280;57358;51.094;6.760;2022-12-07T14:10:35;101201.66;;;5.30;100.00
70015;BME280;57358;51.094;6.760;2022-12-07T14:13:17;101173.44;;;5.11;100.00
70015;BME280;57358;51.094;6.760;2022-12-07T14:15:51;101115.44;;;4.67;100.00
70015;BME280;57358;51.094;6.760;2022-12-07T14:18:39;101189.78;;;5.18;100.00
70015;BME280;57358;51.094;6.760;2022-12-07T14:21:17;101184.84;;;5.06;100.00
70015;BME280;57358;51.094;6.760;2022-12-07T14:23:45;101194.03;;;5.22;100.00
70015;BME280;57358;51.094;6.760;2022-12-07T14:26:28;101171.88;;;5.03;100.00
70015;BME280;57358;51.094;6.760;2022-12-07T14:31:54;101109.88;;;4.84;100.00
70015;BME280;57358;51.094;6.760;2022-12-07T14:34:21;101193.69;;;5.37;100.00
70015;BME280;57358;51.094;6.760;2022-12-07T14:36:48;101157.03;;;5.09;100.00
70015;BME280;57358;51.094;6.760;2022-12-07T14:39:15;101137.34;;;4.97;100.00
70015;BME280;57358;51.094;6.760;2022-12-07T14:41:45;101204.13;;;5.36;100.00
70015;BME280;57358;51.094;6.760;2022-12-07T14:44:20;101157.06;;;5.06;100.00
70015;BME280;57358;51.094;6.760;2022-12-07T14:46:52;101165.69;;;5.08;100.00
70015;BME280;57358;51.094;6.760;2022-12-07T14:49:39;101173.63;;;5.02;100.00
70015;BME280;57358;51.094;6.760;2022-12-07T14:52:13;101198.75;;;5.03;100.00
70015;BME280;57358;51.094;6.760;2022-12-07T14:55:02;101199.81;;;4.94;100.00
70015;BME280;57358;51.094;6.760;2022-12-07T14:57:29;101188.47;;;4.97;100.00
70015;BME280;57358;51.094;6.760;2022-12-07T14:59:55;101161.16;;;4.77;100.00
70015;BME280;57358;51.094;6.760;2022-12-07T15:02:22;101144.16;;;4.61;100.00
70015;BME280;57358;51.094;6.760;2022-12-07T15:04:48;101170.31;;;4.53;100.00
70015;BME280;57358;51.094;6.760;2022-12-07T15:07:19;101019.81;;;3.52;100.00